createdAt,value
2022-11-27T00:05:01.084Z,40.61
2022-11-27T00:11:27.159Z,40.68
2022-11-27T00:17:50.260Z,40.64
2022-11-27T00:24:18.084Z,40.74
2022-11-27T00:30:40.203Z,40.7
2022-11-27T00:37:16.209Z,40.62
2022-11-27T00:43:45.775Z,40.51
2022-11-27T00:50:09.144Z,40.65
2022-11-27T00:56:41.639Z,40.7
2022-11-27T01:03:07.389Z,40.6
2022-11-27T01:09:32.716Z,40.53
2022-11-27T01:16:05.411Z,40.52
2022-11-27T01:22:35.299Z,40.56
2022-11-27T01:29:01.642Z,40.62
2022-11-27T01:35:27.669Z,40.64
2022-11-27T01:41:57.087Z,40.52
2022-11-27T01:48:44.485Z,40.5
2022-11-27T01:55:32.590Z,40.54
2022-11-27T02:02:27.276Z,40.42
2022-11-27T02:09:06.923Z,40.52
2022-11-27T02:16:18.072Z,40.54
2022-11-27T02:23:12.875Z,40.49
2022-11-27T02:30:13.232Z,40.54
2022-11-27T02:37:07.297Z,40.48
2022-11-27T02:44:16.544Z,40.52
2022-11-27T02:51:01.674Z,40.53
2022-11-27T02:57:48.156Z,40.39
2022-11-27T03:04:34.324Z,40.6
2022-11-27T03:11:46.229Z,40.56
2022-11-27T03:18:34.676Z,40.51
2022-11-27T03:25:18.670Z,40.62
2022-11-27T03:31:55.205Z,40.59
2022-11-27T03:38:24.604Z,40.56
2022-11-27T03:45:26.482Z,40.67
2022-11-27T03:52:35.647Z,40.51
2022-11-27T03:59:48.499Z,40.5
2022-11-27T04:06:27.538Z,40.54
2022-11-27T04:12:51.221Z,40.58
2022-11-27T04:19:18.503Z,40.58
2022-11-27T04:25:44.748Z,40.49
2022-11-27T04:32:09.709Z,40.54
2022-11-27T04:38:35.836Z,40.58
2022-11-27T04:44:59.589Z,40.46
2022-11-27T04:51:24.115Z,40.56
2022-11-27T04:57:58.758Z,40.54
2022-11-27T05:04:23.630Z,40.53
2022-11-27T05:11:02.412Z,40.22
2022-11-27T05:17:35.517Z,38.46
2022-11-27T05:24:12.722Z,37.72
2022-11-27T05:30:33.829Z,37.36
2022-11-27T05:36:56.582Z,37.04
2022-11-27T05:43:23.454Z,36.89
2022-11-27T05:49:51.533Z,37.46
2022-11-27T05:56:13.727Z,38.44
2022-11-27T06:02:45.834Z,38.72
2022-11-27T06:09:18.796Z,39.29
2022-11-27T06:15:51.334Z,39.11
2022-11-27T06:22:20.441Z,39.32
2022-11-27T06:28:49.540Z,39.17
2022-11-27T06:35:20.711Z,39.21
2022-11-27T06:41:45.032Z,39.44
2022-11-27T06:48:08.986Z,39.47
2022-11-27T06:54:37.357Z,39.44
2022-11-27T07:01:05.819Z,39.49
2022-11-27T07:07:43.975Z,39.71
2022-11-27T07:14:18.409Z,39.73
2022-11-27T07:20:46.657Z,39.26
2022-11-27T07:27:21.483Z,39.1
2022-11-27T07:33:51.336Z,39.2
2022-11-27T07:40:21.342Z,39.42
2022-11-27T07:46:51.503Z,39.4
2022-11-27T07:53:18.156Z,39.25
2022-11-27T07:59:51.272Z,39.44
2022-11-27T08:06:28.420Z,39.41
2022-11-27T08:12:48.421Z,39.16
2022-11-27T08:19:15.468Z,38.93
2022-11-27T08:25:35.494Z,39.08
2022-11-27T08:32:04.664Z,39.13
2022-11-27T08:38:29.764Z,39.07
2022-11-27T08:44:55.493Z,38.94
2022-11-27T08:51:19.644Z,39.14
2022-11-27T08:57:43.130Z,39.2
2022-11-27T09:04:28.484Z,39.34
2022-11-27T09:10:59.870Z,39.53
2022-11-27T09:17:24.441Z,39.47
2022-11-27T09:23:53.825Z,39.28
2022-11-27T09:30:28.548Z,38.97
2022-11-27T09:37:02.552Z,39.16
2022-11-27T09:43:37.807Z,39.12
2022-11-27T09:50:41.944Z,39.07
2022-11-27T09:57:36.374Z,39.04
2022-11-27T10:04:45.111Z,39.04
2022-11-27T10:11:36.986Z,39.08
2022-11-27T10:18:40.954Z,39.13
2022-11-27T10:25:33.281Z,39.15
2022-11-27T10:32:56.875Z,38.73
2022-11-27T10:39:58.648Z,38.88
2022-11-27T10:46:56.641Z,38.99
2022-11-27T10:53:36.581Z,39.02
2022-11-27T11:00:32.483Z,39.14
2022-11-27T11:07:23.005Z,39.3
2022-11-27T11:14:16.516Z,39.24
2022-11-27T11:21:03.427Z,39.2
2022-11-27T11:27:54.671Z,39.12
2022-11-27T11:35:01.065Z,38.88
2022-11-27T11:41:52.826Z,39.02
2022-11-27T11:48:37.888Z,39.19
2022-11-27T11:55:41.660Z,39.28
2022-11-27T12:02:52.432Z,38.92
2022-11-27T12:09:49.885Z,38.87
2022-11-27T12:16:47.936Z,39.08
2022-11-27T12:24:01.906Z,38.98
2022-11-27T12:31:05.940Z,38.75
2022-11-27T12:38:09.115Z,38.88
2022-11-27T12:45:07.579Z,39.02
2022-11-27T12:52:23.748Z,39.2
2022-11-27T12:59:31.789Z,39.21
2022-11-27T13:06:27.672Z,39.33
2022-11-27T13:13:26.552Z,39.35
2022-11-27T13:20:24.828Z,39.44
2022-11-27T13:27:10.530Z,39.46
2022-11-27T13:34:11.687Z,39.18
2022-11-27T13:41:01.750Z,39.37
2022-11-27T13:47:49.048Z,39.32
2022-11-27T13:54:51.129Z,39.27
2022-11-27T14:01:23.919Z,39.24
2022-11-27T14:08:19.537Z,39.2
2022-11-27T14:15:05.527Z,39.27
2022-11-27T14:22:09.269Z,39.13
2022-11-27T14:29:14.495Z,39.27
2022-11-27T14:36:03.996Z,39.34
2022-11-27T14:42:52.466Z,39.46
2022-11-27T14:49:37.528Z,39.54
2022-11-27T14:56:09.637Z,39.5
2022-11-27T15:02:56.288Z,39.75
2022-11-27T15:09:52.908Z,39.62
2022-11-27T15:16:56.335Z,39.71
2022-11-27T15:23:48.567Z,39.89
2022-11-27T15:30:47.182Z,39.89
2022-11-27T15:37:37.305Z,39.88
2022-11-27T15:44:22.581Z,40.03
2022-11-27T15:51:12.822Z,39.89
2022-11-27T15:57:37.999Z,40.03
2022-11-27T16:04:00.142Z,40.07
2022-11-27T16:10:24.341Z,40.01
2022-11-27T16:16:47.944Z,40.03
2022-11-27T16:23:14.562Z,40.07
2022-11-27T16:29:45.302Z,40.06
2022-11-27T16:36:09.613Z,40.2
2022-11-27T16:42:35.273Z,40.16
2022-11-27T16:49:03.558Z,40.13
2022-11-27T16:55:43.703Z,40.12
2022-11-27T17:02:10.929Z,40.13
2022-11-27T17:08:43.825Z,40.13
2022-11-27T17:15:06.012Z,40.05
2022-11-27T17:21:30.565Z,40.06
2022-11-27T17:28:09.606Z,40.08
2022-11-27T17:34:44.058Z,40.02
2022-11-27T17:41:07.649Z,40
2022-11-27T17:47:42.632Z,40.07
2022-11-27T17:54:15.398Z,39.97
2022-11-27T18:00:46.829Z,39.84
2022-11-27T18:07:23.825Z,40.09
2022-11-27T18:13:56.805Z,40.1
2022-11-27T18:20:28.549Z,40.09
2022-11-27T18:27:08.984Z,40.04
2022-11-27T18:33:49.088Z,40.09
2022-11-27T18:40:19.717Z,40.07
2022-11-27T18:46:50.640Z,40.09
2022-11-27T18:53:22.746Z,40.07
2022-11-27T19:00:08.655Z,40.08
2022-11-27T19:06:39.784Z,40.17
2022-11-27T19:13:15.919Z,40.11
2022-11-27T19:19:55.834Z,40.08
2022-11-27T19:26:24.637Z,40.15
2022-11-27T19:33:03.166Z,40.15
2022-11-27T19:39:31.797Z,40.18
2022-11-27T19:45:59.932Z,40.2
2022-11-27T19:52:30.684Z,40.19
2022-11-27T19:58:57.130Z,40.05
2022-11-27T20:05:38.961Z,40.11
2022-11-27T20:12:10.172Z,40.17
2022-11-27T20:18:33.735Z,40.19
2022-11-27T20:25:19.295Z,40.07
2022-11-27T20:31:42.786Z,40.08
2022-11-27T20:38:14.259Z,40.07
2022-11-27T20:44:38.726Z,40.13
2022-11-27T20:51:05.762Z,40.09
2022-11-27T20:57:35.787Z,40.16
2022-11-27T21:03:55.859Z,40.24
2022-11-27T21:10:26.808Z,40.13
2022-11-27T21:16:52.120Z,40.15
2022-11-27T21:23:16.563Z,40.05
2022-11-27T21:29:43.040Z,40.2
2022-11-27T21:36:09.914Z,40.1
2022-11-27T21:42:45.082Z,40.21
2022-11-27T21:49:19.143Z,40.14
2022-11-27T21:55:48.848Z,40.26
2022-11-27T22:02:14.206Z,40.21
2022-11-27T22:08:39.819Z,40.11
2022-11-27T22:15:26.248Z,40.07
2022-11-27T22:21:56.147Z,40.23
2022-11-27T22:28:18.743Z,40.28
2022-11-27T22:34:47.208Z,40.24
2022-11-27T22:41:19.865Z,40.19
2022-11-27T22:47:44.754Z,40.3
2022-11-27T22:54:16.781Z,40.2
2022-11-27T23:00:37.729Z,40.17
2022-11-27T23:07:06.756Z,40.23
2022-11-27T23:13:42.820Z,40.22
2022-11-27T23:19:59.936Z,40.21
2022-11-27T23:26:25.042Z,40.34
2022-11-27T23:32:57.215Z,40.39
2022-11-27T23:39:22.279Z,40.39
2022-11-27T23:45:50.766Z,40.35
2022-11-27T23:52:22.180Z,40.38
2022-11-27T23:58:53.883Z,40.37
